Baltimore, Maryland
Traffic Map
Current Weather Conditions
Baltimore, Maryland
Scattered Clouds
Scattered Clouds
88°
Feels Like: 88°
Wind Chill: 88° Ceiling: Unl
Heat Index: 88° Visibility: 10mi
Dew Point: 60° Wind: 8mph
Humidity: 39% Direction: 240° (WSW)
Pressure: 29.83in Gusts: 0mph
Raw Report DataKBWI 011954Z 24007KT 10SM SCT070 SCT100 31/16 A2983 RMK AO2 SLP101 CB DSNT SE-S MOV E T03110156
Traffic Incident Summary
Active as of:
Severity:
Category:
InformationThere was an issue retrieving the traffic information for this location. Please try a different location or try again shortly.
Advertisements
Track Severe Weather on mobile